createdAt,value
2018-02-01T00:02:01.237Z,3.30
2018-02-01T00:04:28.700Z,3.20
2018-02-01T00:06:56.153Z,3.20
2018-02-01T00:09:23.611Z,3.20
2018-02-01T00:11:51.188Z,3.20
2018-02-01T00:14:19.447Z,3.20
2018-02-01T00:16:47.120Z,3.20
2018-02-01T00:19:14.567Z,3.20
2018-02-01T00:21:42.047Z,3.20
2018-02-01T00:24:09.495Z,3.20
2018-02-01T00:26:37.044Z,3.10
2018-02-01T00:29:04.504Z,3.10
2018-02-01T00:31:31.968Z,3.10
2018-02-01T00:33:59.727Z,3.00
2018-02-01T00:36:27.399Z,3.10
2018-02-01T00:38:54.853Z,3.10
2018-02-01T00:41:22.304Z,3.10
2018-02-01T00:43:49.871Z,3.00
2018-02-01T00:46:17.400Z,3.00
2018-02-01T00:48:44.860Z,3.00
2018-02-01T00:51:12.456Z,3.00
2018-02-01T00:53:40.682Z,3.10
2018-02-01T00:56:08.389Z,3.10
2018-02-01T00:58:35.844Z,3.10
2018-02-01T01:01:03.419Z,3.10
2018-02-01T01:03:30.868Z,3.10
2018-02-01T01:05:58.344Z,3.10
2018-02-01T01:08:26.572Z,3.20
2018-02-01T01:10:54.052Z,3.10
2018-02-01T01:13:21.827Z,3.20
2018-02-01T01:15:49.588Z,3.20
2018-02-01T01:18:17.052Z,3.30
2018-02-01T01:20:44.511Z,3.40
2018-02-01T01:23:12.267Z,3.40
2018-02-01T01:25:39.944Z,3.40
2018-02-01T01:28:07.556Z,3.50
2018-02-01T01:30:35.015Z,3.40
2018-02-01T01:33:02.467Z,3.40
2018-02-01T01:35:30.169Z,3.40
2018-02-01T01:37:57.632Z,3.40
2018-02-01T01:40:25.304Z,3.30
2018-02-01T01:42:52.763Z,3.30
2018-02-01T01:45:20.232Z,3.30
2018-02-01T01:47:48.480Z,3.20
2018-02-01T01:50:15.936Z,3.20
2018-02-01T01:52:43.600Z,3.10
2018-02-01T01:55:11.055Z,3.10
2018-02-01T01:57:38.516Z,3.10
2018-02-01T02:00:05.988Z,3.10
2018-02-01T02:02:33.659Z,3.10
2018-02-01T02:05:01.197Z,3.20
2018-02-01T02:07:28.655Z,3.20
2018-02-01T02:09:56.112Z,3.30
2018-02-01T02:12:23.572Z,3.30
2018-02-01T02:14:51.340Z,3.30
2018-02-01T02:17:19.104Z,3.30
2018-02-01T02:19:46.864Z,3.30
2018-02-01T02:22:14.631Z,3.30
2018-02-01T02:24:42.306Z,3.30
2018-02-01T02:27:09.771Z,3.20
2018-02-01T02:29:37.313Z,3.20
2018-02-01T02:32:04.768Z,3.20
2018-02-01T02:34:32.225Z,3.20
2018-02-01T02:37:00.001Z,3.20
2018-02-01T02:39:27.763Z,3.20
2018-02-01T02:41:55.216Z,3.20
2018-02-01T02:44:22.896Z,3.20
2018-02-01T02:46:50.346Z,3.20
2018-02-01T02:49:17.807Z,3.20
2018-02-01T02:51:45.356Z,3.20
2018-02-01T02:54:13.120Z,3.20
2018-02-01T02:56:40.879Z,3.20
2018-02-01T02:59:08.329Z,3.20
2018-02-01T03:01:35.804Z,3.20
2018-02-01T03:04:03.264Z,3.20
2018-02-01T03:06:30.940Z,3.10
2018-02-01T03:08:58.480Z,3.10
2018-02-01T03:11:26.152Z,3.10
2018-02-01T03:13:53.704Z,3.10
2018-02-01T03:16:21.160Z,3.10
2018-02-01T03:18:48.619Z,3.00
2018-02-01T03:21:16.087Z,3.00
2018-02-01T03:23:43.539Z,3.00
2018-02-01T03:26:10.991Z,3.00
2018-02-01T03:28:38.483Z,3.00
2018-02-01T03:31:06.124Z,2.90
2018-02-01T03:33:34.337Z,2.90
2018-02-01T03:36:01.976Z,2.90
2018-02-01T03:38:29.511Z,2.90
2018-02-01T03:40:56.967Z,2.90
2018-02-01T03:43:24.428Z,2.90
2018-02-01T03:45:51.963Z,2.80
2018-02-01T03:48:19.603Z,2.80
2018-02-01T03:50:47.061Z,2.70
2018-02-01T03:53:14.524Z,2.70
2018-02-01T03:55:42.023Z,2.70
2018-02-01T03:58:09.471Z,2.70
2018-02-01T04:00:36.936Z,2.70
2018-02-01T04:03:04.704Z,2.80
2018-02-01T04:05:32.168Z,2.70
2018-02-01T04:07:59.928Z,2.70
2018-02-01T04:10:27.381Z,2.80
2018-02-01T04:12:54.832Z,2.80
2018-02-01T04:15:22.289Z,2.80
2018-02-01T04:17:49.768Z,2.70
2018-02-01T04:20:17.215Z,2.70
2018-02-01T04:22:44.672Z,2.70
2018-02-01T04:25:12.444Z,2.70
2018-02-01T04:27:40.203Z,2.70
2018-02-01T04:30:07.691Z,2.70
2018-02-01T04:32:35.139Z,2.70
2018-02-01T04:35:02.596Z,2.70
2018-02-01T04:37:30.056Z,2.70
2018-02-01T04:39:57.506Z,2.70
2018-02-01T04:42:25.259Z,2.70
2018-02-01T04:44:52.718Z,2.70
2018-02-01T04:47:20.484Z,2.60
2018-02-01T04:49:48.248Z,2.60
2018-02-01T04:52:16.012Z,2.60
2018-02-01T04:54:43.498Z,2.60
2018-02-01T04:57:11.239Z,2.50
2018-02-01T04:59:38.751Z,2.40
2018-02-01T05:02:06.200Z,2.40
2018-02-01T05:04:33.765Z,2.40
2018-02-01T05:07:01.288Z,2.30
2018-02-01T05:09:28.831Z,2.30
2018-02-01T05:11:56.512Z,2.30
2018-02-01T05:14:23.984Z,2.20
2018-02-01T05:16:52.199Z,2.20
2018-02-01T05:19:19.659Z,2.20
2018-02-01T05:21:47.355Z,2.20
2018-02-01T05:24:15.119Z,2.20
2018-02-01T05:26:42.571Z,2.20
2018-02-01T05:29:10.139Z,2.10
2018-02-01T05:31:37.591Z,2.20
2018-02-01T05:34:05.179Z,2.20
2018-02-01T05:36:32.628Z,2.20
2018-02-01T05:39:00.174Z,2.10
2018-02-01T05:41:27.956Z,2.10
2018-02-01T05:43:56.176Z,2.10
2018-02-01T05:46:23.800Z,2.10
2018-02-01T05:48:51.541Z,2.10
2018-02-01T05:51:19.219Z,2.10
2018-02-01T05:53:47.436Z,2.10
2018-02-01T05:56:15.140Z,2.10
2018-02-01T05:58:42.628Z,2.10
2018-02-01T06:01:10.272Z,2.10
2018-02-01T06:03:37.820Z,2.00
2018-02-01T06:06:05.591Z,2.00
2018-02-01T06:08:33.043Z,2.00
2018-02-01T06:11:00.525Z,2.10
2018-02-01T06:13:28.271Z,2.00
2018-02-01T06:15:55.727Z,2.10
2018-02-01T06:18:23.187Z,2.00
2018-02-01T06:20:50.644Z,2.00
2018-02-01T06:23:18.109Z,2.00
2018-02-01T06:25:45.860Z,1.90
2018-02-01T06:28:13.634Z,2.00
2018-02-01T06:30:41.398Z,2.10
2018-02-01T06:33:08.876Z,2.10
2018-02-01T06:35:36.596Z,2.20
2018-02-01T06:38:04.052Z,2.20
2018-02-01T06:40:31.535Z,2.20
2018-02-01T06:42:59.317Z,2.10
2018-02-01T06:45:27.060Z,2.20
2018-02-01T06:47:54.824Z,2.20
2018-02-01T06:50:22.577Z,2.20
2018-02-01T06:52:50.048Z,2.20
2018-02-01T06:55:17.548Z,2.20
2018-02-01T06:57:45.275Z,2.30
2018-02-01T07:00:12.732Z,2.30
2018-02-01T07:02:40.345Z,2.30
2018-02-01T07:05:07.951Z,2.30
2018-02-01T07:07:35.449Z,2.30
2018-02-01T07:10:02.884Z,2.30
2018-02-01T07:12:30.632Z,2.30
2018-02-01T07:14:58.404Z,2.30
2018-02-01T07:17:25.861Z,2.40
2018-02-01T07:19:53.420Z,2.40
2018-02-01T07:22:20.876Z,2.40
2018-02-01T07:24:48.455Z,2.40
2018-02-01T07:27:15.912Z,2.40
2018-02-01T07:29:43.362Z,2.40
2018-02-01T07:32:11.585Z,2.50
2018-02-01T07:34:39.296Z,2.50
2018-02-01T07:37:06.752Z,2.50
2018-02-01T07:39:34.223Z,2.50
2018-02-01T07:42:01.947Z,2.50
2018-02-01T07:44:29.780Z,2.50
2018-02-01T07:47:12.180Z,2.50
2018-02-01T07:49:39.704Z,2.60
2018-02-01T07:52:07.469Z,2.60
2018-02-01T07:54:34.932Z,2.60
2018-02-01T07:57:02.384Z,2.60
2018-02-01T07:59:30.065Z,2.70
2018-02-01T08:01:57.528Z,2.70
2018-02-01T08:04:25.004Z,2.70
2018-02-01T08:06:52.459Z,2.70
2018-02-01T08:09:19.988Z,2.70
2018-02-01T08:11:47.463Z,2.70
2018-02-01T08:14:14.919Z,2.70
2018-02-01T08:16:42.477Z,2.80
2018-02-01T08:19:10.732Z,2.90
2018-02-01T08:21:38.188Z,2.80
2018-02-01T08:24:05.652Z,2.90
2018-02-01T08:26:33.112Z,2.90
2018-02-01T08:29:00.573Z,3.00
2018-02-01T08:31:28.332Z,3.10
2018-02-01T08:33:55.785Z,3.10
2018-02-01T08:36:23.236Z,3.20
2018-02-01T08:38:51.013Z,3.20
2018-02-01T08:41:18.467Z,3.20
2018-02-01T08:43:45.923Z,3.30
2018-02-01T08:46:13.632Z,3.30
2018-02-01T08:48:41.129Z,3.40
2018-02-01T08:51:08.584Z,3.40
2018-02-01T08:53:36.036Z,3.40
2018-02-01T08:56:03.491Z,3.40
2018-02-01T08:58:30.948Z,3.40
2018-02-01T09:00:58.412Z,3.50
2018-02-01T09:03:25.868Z,3.70
2018-02-01T09:05:53.665Z,3.80
2018-02-01T09:08:21.429Z,3.90
2018-02-01T09:10:49.203Z,4.00
2018-02-01T09:13:16.657Z,4.20
2018-02-01T09:15:44.108Z,4.40
2018-02-01T09:18:11.565Z,4.40
2018-02-01T09:20:39.021Z,4.30
2018-02-01T09:23:06.796Z,4.20
2018-02-01T09:25:34.552Z,4.10
2018-02-01T09:28:02.008Z,4.10
2018-02-01T09:30:29.463Z,4.10
2018-02-01T09:32:56.912Z,4.10
2018-02-01T09:35:24.692Z,4.10
2018-02-01T09:37:52.152Z,4.20
2018-02-01T09:40:19.628Z,4.20
2018-02-01T09:42:47.080Z,4.20
2018-02-01T09:45:14.836Z,4.20
2018-02-01T09:47:42.288Z,4.10
2018-02-01T09:50:09.753Z,4.20
2018-02-01T09:52:37.262Z,4.30
2018-02-01T09:55:04.974Z,4.50
2018-02-01T09:57:32.424Z,4.50
2018-02-01T09:59:59.876Z,4.60
2018-02-01T10:02:27.327Z,4.60
2018-02-01T10:04:54.808Z,4.60
2018-02-01T10:07:22.260Z,4.60
2018-02-01T10:09:49.709Z,4.70
2018-02-01T10:12:17.160Z,4.70
2018-02-01T10:14:44.615Z,4.60
2018-02-01T10:17:12.076Z,4.60
2018-02-01T10:19:39.552Z,4.60
2018-02-01T10:22:07.004Z,4.50
2018-02-01T10:24:34.460Z,4.40
2018-02-01T10:27:01.940Z,4.40
2018-02-01T10:29:30.150Z,4.40
2018-02-01T10:31:57.653Z,4.40
2018-02-01T10:34:25.115Z,4.40
2018-02-01T10:36:52.600Z,4.40
2018-02-01T10:39:20.135Z,4.40
2018-02-01T10:41:47.595Z,4.40
2018-02-01T10:44:15.051Z,4.40
2018-02-01T10:46:42.507Z,4.40
2018-02-01T10:49:09.980Z,4.40
2018-02-01T10:51:37.432Z,4.40
2018-02-01T10:54:04.932Z,4.50
2018-02-01T10:56:32.379Z,4.50
2018-02-01T10:59:00.108Z,4.50
2018-02-01T11:01:27.568Z,4.50
2018-02-01T11:03:55.252Z,4.50
2018-02-01T11:06:22.785Z,4.50
2018-02-01T11:08:50.284Z,4.40
2018-02-01T11:11:17.900Z,4.50
2018-02-01T11:13:45.348Z,4.50
2018-02-01T11:16:12.925Z,4.50
2018-02-01T11:18:40.701Z,4.60
2018-02-01T11:21:08.144Z,4.60
2018-02-01T11:23:35.619Z,4.60
2018-02-01T11:26:03.368Z,4.70
2018-02-01T11:28:30.820Z,4.70
2018-02-01T11:30:58.597Z,4.70
2018-02-01T11:33:26.048Z,4.70
2018-02-01T11:35:53.504Z,4.80
2018-02-01T11:38:20.960Z,4.70
2018-02-01T11:40:48.720Z,4.70
2018-02-01T11:43:16.188Z,4.80
2018-02-01T11:45:43.955Z,4.80
2018-02-01T11:48:11.476Z,4.80
2018-02-01T11:50:38.928Z,4.70
2018-02-01T11:53:06.540Z,4.70
2018-02-01T11:55:34.006Z,4.70
2018-02-01T11:58:01.464Z,4.60
2018-02-01T12:00:29.004Z,4.60
2018-02-01T12:02:56.773Z,4.60
2018-02-01T12:05:24.539Z,4.50
2018-02-01T12:07:52.020Z,4.50
2018-02-01T12:10:19.472Z,4.40
2018-02-01T12:12:47.216Z,4.40
2018-02-01T12:15:14.672Z,4.30
2018-02-01T12:17:42.128Z,4.30
2018-02-01T12:20:09.587Z,4.30
2018-02-01T12:22:37.044Z,4.40
2018-02-01T12:25:04.812Z,4.40
2018-02-01T12:27:32.284Z,4.50
2018-02-01T12:29:59.736Z,4.50
2018-02-01T12:32:27.187Z,4.50
2018-02-01T12:34:54.639Z,4.50
2018-02-01T12:37:22.092Z,4.50
2018-02-01T12:39:49.872Z,4.50
2018-02-01T12:42:17.636Z,4.60
2018-02-01T12:44:45.088Z,4.60
2018-02-01T12:47:12.540Z,4.50
2018-02-01T12:49:39.998Z,4.50
2018-02-01T12:52:07.459Z,4.50
2018-02-01T12:54:35.124Z,4.50
2018-02-01T12:57:02.692Z,4.50
2018-02-01T12:59:30.153Z,4.50
2018-02-01T13:01:57.909Z,4.50
2018-02-01T13:04:25.367Z,4.50
2018-02-01T13:06:52.816Z,4.40
2018-02-01T13:09:20.499Z,4.40
2018-02-01T13:11:47.985Z,4.40
2018-02-01T13:14:15.436Z,4.50
2018-02-01T13:16:42.893Z,4.40
2018-02-01T13:19:10.343Z,4.40
2018-02-01T13:21:37.882Z,4.40
2018-02-01T13:24:05.643Z,4.40
2018-02-01T13:26:33.100Z,4.50
2018-02-01T13:29:00.552Z,4.50
2018-02-01T13:31:28.016Z,4.50
2018-02-01T13:33:55.480Z,4.60
2018-02-01T13:36:22.952Z,4.60
2018-02-01T13:38:50.607Z,4.60
2018-02-01T13:41:18.060Z,4.60
2018-02-01T13:43:45.524Z,4.60
2018-02-01T13:46:13.337Z,4.60
2018-02-01T13:48:41.144Z,4.60
2018-02-01T13:51:08.913Z,4.60
2018-02-01T13:53:36.676Z,4.60
2018-02-01T13:56:04.439Z,4.60
2018-02-01T13:58:31.897Z,4.60
2018-02-01T14:00:59.355Z,4.60
2018-02-01T14:03:27.276Z,4.60
2018-02-01T14:05:54.721Z,4.70
2018-02-01T14:08:22.180Z,4.70
2018-02-01T14:10:50.111Z,4.70
2018-02-01T14:13:17.564Z,4.70
2018-02-01T14:15:45.020Z,4.70
2018-02-01T14:18:12.507Z,4.80
2018-02-01T14:20:40.256Z,4.60
2018-02-01T14:23:07.704Z,4.50
2018-02-01T14:25:35.167Z,4.50
2018-02-01T14:28:02.928Z,4.50
2018-02-01T14:30:30.384Z,4.50
2018-02-01T14:32:58.148Z,4.40
2018-02-01T14:35:25.604Z,4.40
2018-02-01T14:37:53.084Z,4.40
2018-02-01T14:40:20.832Z,4.30
2018-02-01T14:42:48.288Z,4.30
2018-02-01T14:45:15.748Z,4.20
2018-02-01T14:47:43.204Z,4.00
2018-02-01T14:50:10.969Z,4.10
2018-02-01T14:52:38.736Z,4.00
2018-02-01T14:55:06.656Z,3.90
2018-02-01T14:57:34.319Z,3.90
2018-02-01T15:00:01.974Z,3.90
2018-02-01T15:02:29.432Z,3.90
2018-02-01T15:04:56.954Z,3.80
2018-02-01T15:07:24.711Z,3.80
2018-02-01T15:09:52.168Z,3.70
2018-02-01T15:12:19.667Z,3.70
2018-02-01T15:14:47.124Z,3.70
2018-02-01T15:17:14.765Z,3.60
2018-02-01T15:19:42.219Z,3.60
2018-02-01T15:22:09.671Z,3.60
2018-02-01T15:24:37.165Z,3.50
2018-02-01T15:27:04.686Z,3.50
2018-02-01T15:29:32.443Z,3.50
2018-02-01T15:31:59.908Z,3.50
2018-02-01T15:34:27.387Z,3.60
2018-02-01T15:36:54.847Z,3.60
2018-02-01T15:39:22.488Z,3.50
2018-02-01T15:41:49.944Z,3.50
2018-02-01T15:44:17.388Z,3.60
2018-02-01T15:46:44.881Z,3.60
2018-02-01T15:49:12.419Z,3.60
2018-02-01T15:51:40.184Z,3.60
2018-02-01T15:54:07.677Z,3.60
2018-02-01T15:56:35.099Z,3.70
2018-02-01T15:59:02.559Z,3.70
2018-02-01T16:01:30.074Z,3.80
2018-02-01T16:03:57.688Z,3.80
2018-02-01T16:06:25.236Z,3.70
2018-02-01T16:08:52.836Z,3.80
2018-02-01T16:11:20.464Z,3.80
2018-02-01T16:13:48.223Z,3.70
2018-02-01T16:16:15.737Z,3.70
2018-02-01T16:18:43.448Z,3.70
2018-02-01T16:21:11.224Z,3.80
2018-02-01T16:23:38.680Z,3.80
2018-02-01T16:26:06.136Z,3.70
2018-02-01T16:28:33.600Z,3.60
2018-02-01T16:31:01.062Z,3.60
2018-02-01T16:33:28.575Z,3.60
2018-02-01T16:35:56.180Z,3.50
2018-02-01T16:38:23.779Z,3.50
2018-02-01T16:40:51.493Z,3.40
2018-02-01T16:43:19.252Z,3.40
2018-02-01T16:45:47.025Z,3.40
2018-02-01T16:48:14.783Z,3.30
2018-02-01T16:50:42.240Z,3.30
2018-02-01T16:53:09.733Z,3.30
2018-02-01T16:55:37.468Z,3.30
2018-02-01T16:58:04.930Z,3.30
2018-02-01T17:00:32.383Z,3.20
2018-02-01T17:03:00.144Z,3.20
2018-02-01T17:05:27.614Z,3.30
2018-02-01T17:07:55.064Z,3.20
2018-02-01T17:10:22.824Z,3.00
2018-02-01T17:12:50.280Z,2.90
2018-02-01T17:15:18.049Z,2.60
2018-02-01T17:17:45.820Z,2.60
2018-02-01T17:20:13.272Z,2.60
2018-02-01T17:22:41.037Z,2.60
2018-02-01T17:25:08.483Z,2.60
2018-02-01T17:27:35.953Z,2.60
2018-02-01T17:30:03.413Z,2.50
2018-02-01T17:32:30.860Z,2.50
2018-02-01T17:34:58.643Z,2.60
2018-02-01T17:37:26.311Z,2.70
2018-02-01T17:39:53.772Z,2.70
2018-02-01T17:42:21.312Z,2.70
2018-02-01T17:44:48.763Z,2.70
2018-02-01T17:47:16.386Z,2.70
2018-02-01T17:49:43.997Z,2.70
2018-02-01T17:52:11.455Z,2.70
2018-02-01T17:54:38.912Z,2.70
2018-02-01T17:57:06.375Z,2.80
2018-02-01T17:59:34.133Z,2.70
2018-02-01T18:02:01.807Z,2.80
2018-02-01T18:04:30.275Z,2.70
2018-02-01T18:06:57.732Z,2.70
2018-02-01T18:09:25.192Z,2.70
2018-02-01T18:11:52.674Z,2.70
2018-02-01T18:14:20.420Z,2.70
2018-02-01T18:16:47.871Z,2.70
2018-02-01T18:19:15.331Z,2.70
2018-02-01T18:21:42.788Z,2.70
2018-02-01T18:24:10.216Z,2.70
2018-02-01T18:26:37.712Z,2.70
2018-02-01T18:29:05.168Z,2.80
2018-02-01T18:31:32.851Z,2.90
2018-02-01T18:34:00.392Z,3.00
2018-02-01T18:36:28.152Z,3.00
2018-02-01T18:38:55.611Z,3.00
2018-02-01T18:41:23.064Z,3.10
2018-02-01T18:43:50.528Z,3.10
2018-02-01T18:46:18.295Z,3.10
2018-02-01T18:48:45.756Z,3.10
2018-02-01T18:51:13.515Z,3.10
2018-02-01T18:53:40.968Z,3.00
2018-02-01T18:56:08.755Z,3.10
2018-02-01T18:58:36.208Z,3.10
2018-02-01T19:01:03.960Z,3.00
2018-02-01T19:03:31.728Z,3.00
2018-02-01T19:05:59.487Z,3.00
2018-02-01T19:08:26.947Z,3.10
2018-02-01T19:10:54.718Z,3.10
2018-02-01T19:13:22.180Z,3.10
2018-02-01T19:15:49.647Z,3.10
2018-02-01T19:18:17.392Z,3.10
2018-02-01T19:20:45.161Z,3.10
2018-02-01T19:23:12.923Z,3.10
2018-02-01T19:25:40.688Z,3.10
2018-02-01T19:28:08.165Z,3.10
2018-02-01T19:30:35.616Z,3.00
2018-02-01T19:33:03.072Z,3.00
2018-02-01T19:35:30.519Z,3.00
2018-02-01T19:37:57.972Z,3.00
2018-02-01T19:40:25.544Z,3.00
2018-02-01T19:42:52.996Z,3.00
2018-02-01T19:45:20.461Z,3.00
2018-02-01T19:47:47.912Z,3.00
2018-02-01T19:50:15.579Z,3.00
2018-02-01T19:52:43.032Z,3.00
2018-02-01T19:55:10.800Z,3.10
2018-02-01T19:57:38.258Z,3.00
2018-02-01T20:00:05.714Z,2.90
2018-02-01T20:02:33.177Z,2.90
2018-02-01T20:05:00.634Z,2.90
2018-02-01T20:07:28.399Z,2.90
2018-02-01T20:09:55.852Z,2.90
2018-02-01T20:12:23.308Z,2.90
2018-02-01T20:14:50.785Z,2.90
2018-02-01T20:17:18.320Z,2.90
2018-02-01T20:19:45.964Z,2.90
2018-02-01T20:22:14.380Z,2.90
2018-02-01T20:24:41.827Z,3.00
2018-02-01T20:27:09.600Z,2.90
2018-02-01T20:29:37.368Z,2.90
2018-02-01T20:32:05.035Z,2.90
2018-02-01T20:34:32.504Z,2.90
2018-02-01T20:37:00.044Z,2.90
2018-02-01T20:39:27.805Z,2.90
2018-02-01T20:41:55.260Z,2.90
2018-02-01T20:44:23.033Z,2.80
2018-02-01T20:46:50.492Z,2.80
2018-02-01T20:49:17.958Z,2.80
2018-02-01T20:51:45.408Z,2.80
2018-02-01T20:54:12.884Z,2.80
2018-02-01T20:56:40.323Z,2.70
2018-02-01T20:59:08.087Z,2.70
2018-02-01T21:01:35.539Z,2.80
2018-02-01T21:04:02.996Z,2.80
2018-02-01T21:06:30.460Z,2.80
2018-02-01T21:08:58.229Z,2.90
2018-02-01T21:11:25.903Z,2.90
2018-02-01T21:13:53.444Z,2.90
2018-02-01T21:16:21.213Z,2.90
2018-02-01T21:18:48.671Z,2.90
2018-02-01T21:21:16.432Z,2.90
2018-02-01T21:23:43.898Z,3.00
2018-02-01T21:26:11.356Z,3.00
2018-02-01T21:28:39.040Z,3.00
2018-02-01T21:31:06.492Z,3.10
2018-02-01T21:33:34.116Z,3.00
2018-02-01T21:36:01.703Z,3.10
2018-02-01T21:38:30.176Z,3.20
2018-02-01T21:40:57.944Z,3.20
2018-02-01T21:43:25.403Z,3.20
2018-02-01T21:45:52.855Z,3.10
2018-02-01T21:48:20.325Z,3.10
2018-02-01T21:50:47.991Z,3.00
2018-02-01T21:53:15.539Z,3.00
2018-02-01T21:55:43.313Z,2.90
2018-02-01T21:58:10.771Z,2.90
2018-02-01T22:00:38.232Z,2.90
2018-02-01T22:03:05.968Z,2.80
2018-02-01T22:05:33.420Z,2.80
2018-02-01T22:08:00.876Z,2.80
2018-02-01T22:10:28.336Z,2.80
2018-02-01T22:12:55.792Z,2.80
2018-02-01T22:15:23.253Z,2.70
2018-02-01T22:17:50.728Z,2.70
2018-02-01T22:20:18.218Z,2.60
2018-02-01T22:22:45.988Z,2.60
2018-02-01T22:25:13.500Z,2.60
2018-02-01T22:27:40.972Z,2.70
2018-02-01T22:30:08.419Z,2.70
2018-02-01T22:32:35.883Z,2.70
2018-02-01T22:35:03.345Z,2.70
2018-02-01T22:37:31.008Z,2.70
2018-02-01T22:39:58.464Z,2.70
2018-02-01T22:42:25.919Z,2.80
2018-02-01T22:44:53.376Z,2.80
2018-02-01T22:47:20.843Z,2.90
2018-02-01T22:49:48.388Z,2.90
2018-02-01T22:52:15.848Z,2.90
2018-02-01T22:54:43.304Z,3.00
2018-02-01T22:57:10.983Z,3.00
2018-02-01T22:59:38.604Z,3.10
2018-02-01T23:02:06.199Z,3.10
2018-02-01T23:04:33.655Z,3.10
2018-02-01T23:07:01.108Z,3.20
2018-02-01T23:09:28.567Z,3.30
2018-02-01T23:11:56.028Z,3.30
2018-02-01T23:14:23.493Z,3.30
2018-02-01T23:16:50.965Z,3.30
2018-02-01T23:19:18.717Z,3.40
2018-02-01T23:21:46.172Z,3.40
2018-02-01T23:24:13.940Z,3.30
2018-02-01T23:26:41.413Z,3.40
2018-02-01T23:29:08.864Z,3.40
2018-02-01T23:31:36.531Z,3.40
2018-02-01T23:34:04.078Z,3.30
2018-02-01T23:36:31.539Z,3.30
2018-02-01T23:38:58.995Z,3.30
2018-02-01T23:41:26.455Z,3.20
2018-02-01T23:43:54.212Z,3.20
2018-02-01T23:46:21.667Z,3.30
2018-02-01T23:48:49.441Z,3.30
2018-02-01T23:51:16.908Z,3.30
2018-02-01T23:53:44.364Z,3.40
2018-02-01T23:56:11.816Z,3.30
2018-02-01T23:58:39.580Z,3.30
